createdAt,value
2022-10-01T00:02:33.380Z,99831.91
2022-10-01T00:05:07.253Z,99830.23
2022-10-01T00:07:42.005Z,99826.87
2022-10-01T00:10:16.221Z,99822.50
2022-10-01T00:12:49.800Z,99824.33
2022-10-01T00:15:22.093Z,99821.57
2022-10-01T00:17:54.743Z,99818.92
2022-10-01T00:20:26.967Z,99824.11
2022-10-01T00:22:59.518Z,99813.62
2022-10-01T00:25:31.790Z,99821.57
2022-10-01T00:28:03.943Z,99822.39
2022-10-01T00:30:40.141Z,99824.11
2022-10-01T00:33:09.925Z,99817.95
2022-10-01T00:35:42.150Z,99816.27
2022-10-01T00:38:15.513Z,99822.64
2022-10-01T00:40:47.701Z,99820.94
2022-10-01T00:43:28.919Z,99821.19
2022-10-01T00:46:03.959Z,99816.97
2022-10-01T00:48:39.185Z,99809.13
2022-10-01T00:51:13.552Z,99810.31
2022-10-01T00:53:47.207Z,99814.86
2022-10-01T00:56:19.506Z,99812.21
2022-10-01T00:58:53.127Z,99810.53
2022-10-01T01:01:25.690Z,99808.85
2022-10-01T01:03:58.817Z,99814.97
2022-10-01T01:06:31.441Z,99815.22
2022-10-01T01:09:03.642Z,99807.28
2022-10-01T01:11:50.829Z,99815.22
2022-10-01T01:14:54.533Z,99811.71
2022-10-01T01:17:29.677Z,99807.39
2022-10-01T01:20:07.928Z,99773.48
2022-10-01T01:22:44.139Z,99797.98
2022-10-01T01:25:22.067Z,99774.31
2022-10-01T01:28:09.604Z,99793.58
2022-10-01T01:30:44.015Z,99789.11
2022-10-01T01:33:22.316Z,99801.81
2022-10-01T01:36:04.696Z,99799.16
2022-10-01T01:38:39.710Z,99792.19
2022-10-01T01:41:14.495Z,99793.97
2022-10-01T01:43:48.915Z,99791.44
2022-10-01T01:46:22.154Z,99795.66
2022-10-01T01:48:55.467Z,99786.89
2022-10-01T01:51:39.679Z,99791.44
2022-10-01T01:54:11.783Z,99793.37
2022-10-01T01:56:43.918Z,99803.20
2022-10-01T01:59:18.376Z,99792.94
2022-10-01T02:01:51.326Z,99801.23
2022-10-01T02:04:26.343Z,99799.55
2022-10-01T02:07:14.738Z,99784.61
2022-10-01T02:10:02.370Z,99797.02
2022-10-01T02:12:56.889Z,99797.02
2022-10-01T02:15:33.547Z,99802.31
2022-10-01T02:18:23.662Z,99797.02
2022-10-01T02:21:13.550Z,99791.08
2022-10-01T02:23:54.153Z,99788.75
2022-10-01T02:26:29.622Z,99783.17
2022-10-01T02:29:04.768Z,99781.70
2022-10-01T02:31:37.848Z,99784.56
2022-10-01T02:34:12.787Z,99779.62
2022-10-01T02:36:46.315Z,99780.55
2022-10-01T02:39:20.201Z,99765.34
2022-10-01T02:41:54.755Z,99771.14
2022-10-01T02:44:30.319Z,99773.07
2022-10-01T02:47:07.227Z,99769.67
2022-10-01T02:49:41.809Z,99764.63
2022-10-01T02:52:25.880Z,99754.69
2022-10-01T02:55:00.990Z,99764.84
2022-10-01T02:57:33.328Z,99761.23
2022-10-01T03:00:11.731Z,99749.94
2022-10-01T03:02:44.121Z,99749.94
2022-10-01T03:05:16.553Z,99730.48
2022-10-01T03:07:49.607Z,99730.48
2022-10-01T03:10:22.185Z,99723.41
2022-10-01T03:12:54.284Z,99721.08
2022-10-01T03:15:26.652Z,99748.36
2022-10-01T03:17:58.738Z,99751.00
2022-10-01T03:20:31.003Z,99751.00
2022-10-01T03:23:03.257Z,99755.44
2022-10-01T03:25:35.485Z,99752.80
2022-10-01T03:28:07.814Z,99751.94
2022-10-01T03:30:39.904Z,99749.29
2022-10-01T03:33:12.028Z,99749.29
2022-10-01T03:35:44.220Z,99751.83
2022-10-01T03:38:16.393Z,99756.30
2022-10-01T03:40:48.584Z,99751.83
2022-10-01T03:43:20.909Z,99728.91
2022-10-01T03:45:53.271Z,99728.91
2022-10-01T03:48:25.648Z,99743.08
2022-10-01T03:51:00.243Z,99740.28
2022-10-01T03:53:31.827Z,99740.28
2022-10-01T03:56:04.861Z,99764.87
2022-10-01T03:58:37.163Z,99731.94
2022-10-01T04:01:09.350Z,99735.41
2022-10-01T04:03:41.754Z,99734.69
2022-10-01T04:06:14.247Z,99720.31
2022-10-01T04:08:46.693Z,99740.08
2022-10-01T04:11:19.246Z,99736.47
2022-10-01T04:13:51.771Z,99739.22
2022-10-01T04:16:24.955Z,99741.76
2022-10-01T04:18:57.030Z,99733.83
2022-10-01T04:21:29.281Z,99744.19
2022-10-01T04:24:03.356Z,99738.91
2022-10-01T04:26:35.725Z,99736.16
2022-10-01T04:29:08.261Z,99749.27
2022-10-01T04:31:40.629Z,99747.34
2022-10-01T04:34:12.897Z,99742.80
2022-10-01T04:36:45.550Z,99747.98
2022-10-01T04:39:17.600Z,99742.80
2022-10-01T04:41:50.082Z,99720.28
2022-10-01T04:44:22.311Z,99716.89
2022-10-01T04:46:54.906Z,99731.88
2022-10-01T04:49:27.336Z,99736.23
2022-10-01T04:52:00.013Z,99741.63
2022-10-01T04:54:32.600Z,99738.48
2022-10-01T04:57:05.127Z,99735.94
2022-10-01T04:59:37.323Z,99732.55
2022-10-01T05:02:09.922Z,99732.14
2022-10-01T05:04:42.240Z,99745.88
2022-10-01T05:07:15.593Z,99738.91
2022-10-01T05:09:47.604Z,99733.61
2022-10-01T05:12:24.311Z,99737.01
2022-10-01T05:14:55.052Z,99739.09
2022-10-01T05:17:27.671Z,99739.09
2022-10-01T05:20:00.339Z,99727.22
2022-10-01T05:22:33.760Z,99727.22
2022-10-01T05:25:07.449Z,99735.66
2022-10-01T05:27:41.135Z,99732.69
2022-10-01T05:30:17.046Z,99727.91
2022-10-01T05:32:57.510Z,99727.58
2022-10-01T05:35:30.430Z,99732.66
2022-10-01T05:38:04.142Z,99732.44
2022-10-01T05:40:36.427Z,99721.63
2022-10-01T05:43:08.870Z,99721.38
2022-10-01T05:45:41.306Z,99723.91
2022-10-01T05:48:13.480Z,99720.20
2022-10-01T05:50:46.937Z,99720.94
2022-10-01T05:53:19.452Z,99718.08
2022-10-01T05:55:51.486Z,99718.78
2022-10-01T05:58:23.896Z,99713.98
2022-10-01T06:00:57.184Z,99711.49
2022-10-01T06:03:29.730Z,99708.26
2022-10-01T06:06:02.079Z,99701.43
2022-10-01T06:08:37.772Z,99712.63
2022-10-01T06:11:09.978Z,99701.58
2022-10-01T06:13:43.887Z,99704.22
2022-10-01T06:16:16.551Z,99698.58
2022-10-01T06:18:49.821Z,99695.59
2022-10-01T06:21:21.824Z,99682.09
2022-10-01T06:23:54.371Z,99703.91
2022-10-01T06:26:27.010Z,99702.82
2022-10-01T06:28:59.001Z,99692.58
2022-10-01T06:31:33.237Z,99692.58
2022-10-01T06:34:06.161Z,99693.17
2022-10-01T06:36:38.307Z,99688.53
2022-10-01T06:39:10.726Z,99690.56
2022-10-01T06:41:43.547Z,99682.73
2022-10-01T06:44:16.569Z,99689.83
2022-10-01T06:46:48.352Z,99687.11
2022-10-01T06:49:22.340Z,99679.91
2022-10-01T06:52:12.263Z,99669.73
2022-10-01T06:54:44.906Z,99662.75
2022-10-01T06:57:17.444Z,99668.05
2022-10-01T06:59:50.716Z,99670.36
2022-10-01T07:02:27.374Z,99664.42
2022-10-01T07:05:00.617Z,99659.11
2022-10-01T07:07:35.572Z,99648.13
2022-10-01T07:10:10.236Z,99647.63
2022-10-01T07:12:42.365Z,99654.80
2022-10-01T07:15:14.568Z,99649.43
2022-10-01T07:17:49.728Z,99651.28
2022-10-01T07:20:22.357Z,99650.59
2022-10-01T07:22:59.717Z,99652.81
2022-10-01T07:25:31.830Z,99646.91
2022-10-01T07:28:06.474Z,99651.23
2022-10-01T07:30:40.284Z,99650.67
2022-10-01T07:33:13.613Z,99647.45
2022-10-01T07:35:47.583Z,99643.09
2022-10-01T07:38:19.992Z,99645.15
2022-10-01T07:40:54.980Z,99634.64
2022-10-01T07:43:27.480Z,99647.89
2022-10-01T07:46:00.498Z,99648.00
2022-10-01T07:48:32.986Z,99634.97
2022-10-01T07:51:05.608Z,99629.65
2022-10-01T07:53:37.880Z,99628.84
2022-10-01T07:56:10.015Z,99619.37
2022-10-01T07:58:43.529Z,99616.03
2022-10-01T08:01:17.383Z,99617.22
2022-10-01T08:03:50.443Z,99609.94
2022-10-01T08:06:25.767Z,99606.20
2022-10-01T08:08:57.090Z,99606.33
2022-10-01T08:11:29.069Z,99606.20
2022-10-01T08:14:01.376Z,99603.54
2022-10-01T08:16:34.581Z,99606.03
2022-10-01T08:19:08.673Z,99592.61
2022-10-01T08:21:40.864Z,99595.00
2022-10-01T08:24:13.056Z,99585.38
2022-10-01T08:26:45.840Z,99590.83
2022-10-01T08:29:17.821Z,99590.41
2022-10-01T08:31:50.267Z,99581.97
2022-10-01T08:34:22.542Z,99576.39
2022-10-01T08:36:54.540Z,99577.41
2022-10-01T08:39:27.344Z,99578.25
2022-10-01T08:42:11.300Z,99575.88
2022-10-01T08:44:46.711Z,99582.87
2022-10-01T08:47:22.052Z,99567.63
2022-10-01T08:49:57.073Z,99568.61
2022-10-01T08:52:34.976Z,99569.15
2022-10-01T08:55:10.152Z,99564.09
2022-10-01T08:57:47.046Z,99562.16
2022-10-01T09:00:21.543Z,99555.56
2022-10-01T09:02:53.947Z,99555.56
2022-10-01T09:05:46.976Z,99552.37
2022-10-01T09:08:45.935Z,99549.41
2022-10-01T09:11:54.240Z,99547.03
2022-10-01T09:14:32.319Z,99545.64
2022-10-01T09:17:07.417Z,99538.64
2022-10-01T09:19:46.071Z,99541.70
2022-10-01T09:22:44.576Z,99536.54
2022-10-01T09:25:27.511Z,99535.80
2022-10-01T09:28:23.393Z,99526.42
2022-10-01T09:31:02.031Z,99517.48
2022-10-01T09:33:40.229Z,99514.53
2022-10-01T09:36:21.665Z,99512.86
2022-10-01T09:39:32.132Z,99509.64
2022-10-01T09:42:05.425Z,99505.45
2022-10-01T09:44:38.421Z,99510.48
2022-10-01T09:47:19.855Z,99506.09
2022-10-01T09:49:52.354Z,99497.10
2022-10-01T09:52:32.042Z,99502.26
2022-10-01T09:55:26.740Z,99492.31
2022-10-01T09:58:02.702Z,99494.38
2022-10-01T10:00:41.488Z,99492.71
2022-10-01T10:03:27.848Z,99482.21
2022-10-01T10:06:02.155Z,99483.20
2022-10-01T10:08:43.175Z,99479.55
2022-10-01T10:11:18.721Z,99472.83
2022-10-01T10:13:56.192Z,99468.77
2022-10-01T10:16:32.191Z,99474.50
2022-10-01T10:19:09.085Z,99470.70
2022-10-01T10:21:44.687Z,99454.72
2022-10-01T10:24:26.754Z,99451.20
2022-10-01T10:27:03.841Z,99455.48
2022-10-01T10:29:37.888Z,99445.13
2022-10-01T10:32:26.345Z,99444.99
2022-10-01T10:35:03.940Z,99440.97
2022-10-01T10:37:41.180Z,99433.17
2022-10-01T10:40:25.707Z,99433.47
2022-10-01T10:42:58.600Z,99421.47
2022-10-01T10:45:35.858Z,99423.73
2022-10-01T10:48:11.625Z,99430.21
2022-10-01T10:50:46.569Z,99423.73
2022-10-01T10:53:24.422Z,99417.47
2022-10-01T10:56:02.599Z,99421.50
2022-10-01T10:58:42.525Z,99419.96
2022-10-01T11:01:20.888Z,99418.69
2022-10-01T11:03:59.797Z,99420.75
2022-10-01T11:06:32.370Z,99410.81
2022-10-01T11:09:09.283Z,99408.42
2022-10-01T11:11:56.780Z,99412.19
2022-10-01T11:14:36.293Z,99404.52
2022-10-01T11:17:12.559Z,99411.07
2022-10-01T11:19:48.512Z,99402.38
2022-10-01T11:22:43.084Z,99405.76
2022-10-01T11:25:24.477Z,99401.41
2022-10-01T11:28:19.336Z,99401.56
2022-10-01T11:31:01.786Z,99395.66
2022-10-01T11:33:49.021Z,99387.27
2022-10-01T11:36:27.533Z,99384.74
2022-10-01T11:39:03.939Z,99387.49
2022-10-01T11:41:45.152Z,99379.66
2022-10-01T11:44:38.347Z,99364.84
2022-10-01T11:47:13.707Z,99364.84
2022-10-01T11:50:00.805Z,99360.27
2022-10-01T11:52:53.928Z,99359.28
2022-10-01T11:55:58.949Z,99362.66
2022-10-01T11:58:52.571Z,99363.55
2022-10-01T12:01:27.957Z,99363.55
2022-10-01T12:04:25.759Z,99352.39
2022-10-01T12:07:12.809Z,99360.65
2022-10-01T12:09:54.042Z,99354.51
2022-10-01T12:12:41.436Z,99355.23
2022-10-01T12:15:19.573Z,99351.85
2022-10-01T12:18:03.964Z,99348.38
2022-10-01T12:20:45.185Z,99342.62
2022-10-01T12:23:20.844Z,99339.85
2022-10-01T12:26:29.146Z,99332.44
2022-10-01T12:29:16.338Z,99330.06
2022-10-01T12:31:51.874Z,99317.73
2022-10-01T12:34:26.978Z,99313.09
2022-10-01T12:37:17.224Z,99302.82
2022-10-01T12:40:16.812Z,99296.47
2022-10-01T12:43:04.233Z,99300.77
2022-10-01T12:45:44.819Z,99297.07
2022-10-01T12:48:26.327Z,99298.27
2022-10-01T12:51:13.339Z,99291.86
2022-10-01T12:53:48.427Z,99286.25
2022-10-01T12:56:33.808Z,99287.75
2022-10-01T12:59:14.755Z,99295.59
2022-10-01T13:01:50.016Z,99291.05
2022-10-01T13:04:25.129Z,99288.47
2022-10-01T13:07:15.018Z,99288.44
2022-10-01T13:10:12.377Z,99289.58
2022-10-01T13:12:59.268Z,99286.84
2022-10-01T13:15:37.829Z,99294.69
2022-10-01T13:18:29.352Z,99283.02
2022-10-01T13:21:10.694Z,99282.55
2022-10-01T13:23:58.182Z,99275.76
2022-10-01T13:26:42.177Z,99278.85
2022-10-01T13:29:35.642Z,99271.16
2022-10-01T13:32:28.558Z,99272.70
2022-10-01T13:35:04.172Z,99262.66
2022-10-01T13:37:40.022Z,99270.91
2022-10-01T13:40:33.666Z,99268.39
2022-10-01T13:43:19.020Z,99270.19
2022-10-01T13:45:54.783Z,99262.80
2022-10-01T13:48:34.704Z,99260.14
2022-10-01T13:51:13.262Z,99262.80
2022-10-01T13:53:53.305Z,99255.81
2022-10-01T13:56:36.260Z,99265.59
2022-10-01T13:59:28.983Z,99269.06
2022-10-01T14:02:02.841Z,99262.08
2022-10-01T14:04:44.143Z,99257.34
2022-10-01T14:07:31.165Z,99257.62
2022-10-01T14:10:04.569Z,99259.73
2022-10-01T14:12:55.833Z,99259.02
2022-10-01T14:16:00.759Z,99255.10
2022-10-01T14:18:43.684Z,99259.88
2022-10-01T14:21:33.778Z,99241.83
2022-10-01T14:24:17.891Z,99245.73
2022-10-01T14:26:55.727Z,99235.28
2022-10-01T14:29:54.552Z,99223.27
2022-10-01T14:32:46.440Z,99218.36
2022-10-01T14:35:27.862Z,99215.97
2022-10-01T14:38:06.528Z,99204.80
2022-10-01T14:40:42.115Z,99201.61
2022-10-01T14:43:26.199Z,99199.22
2022-10-01T14:46:05.468Z,99194.19
2022-10-01T14:48:41.580Z,99196.16
2022-10-01T14:51:31.513Z,99201.73
2022-10-01T14:54:03.868Z,99201.88
2022-10-01T14:56:38.435Z,99197.82
2022-10-01T14:59:16.968Z,99198.80
2022-10-01T15:01:55.451Z,99193.77
2022-10-01T15:04:27.909Z,99189.71
2022-10-01T15:07:05.535Z,99190.39
2022-10-01T15:09:38.049Z,99190.11
2022-10-01T15:12:11.141Z,99182.81
2022-10-01T15:14:45.006Z,99188.69
2022-10-01T15:17:23.563Z,99185.45
2022-10-01T15:19:58.730Z,99171.63
2022-10-01T15:22:34.798Z,99169.24
2022-10-01T15:25:07.879Z,99163.25
2022-10-01T15:27:42.137Z,99161.58
2022-10-01T15:30:17.988Z,99154.87
2022-10-01T15:32:51.737Z,99145.64
2022-10-01T15:35:26.317Z,99143.52
2022-10-01T15:38:00.322Z,99131.11
2022-10-01T15:40:37.009Z,99129.31
2022-10-01T15:43:29.975Z,99123.84
2022-10-01T15:46:08.019Z,99115.06
2022-10-01T15:48:39.125Z,99113.40
2022-10-01T15:51:25.664Z,99108.22
2022-10-01T15:54:06.523Z,99097.20
2022-10-01T15:56:40.698Z,99102.36
2022-10-01T15:59:16.063Z,99096.89
2022-10-01T16:01:48.699Z,99091.98
2022-10-01T16:04:22.318Z,99095.63
2022-10-01T16:06:55.272Z,99087.08
2022-10-01T16:09:30.957Z,99086.13
2022-10-01T16:12:12.891Z,99088.48
2022-10-01T16:14:59.914Z,99084.03
2022-10-01T16:17:40.874Z,99073.17
2022-10-01T16:20:21.589Z,99071.06
2022-10-01T16:22:55.733Z,99074.14
2022-10-01T16:25:33.177Z,99056.30
2022-10-01T16:28:08.796Z,99051.55
2022-10-01T16:30:41.968Z,99049.47
2022-10-01T16:33:15.428Z,99035.91
2022-10-01T16:35:52.472Z,99029.34
2022-10-01T16:38:25.262Z,99031.19
2022-10-01T16:40:58.909Z,99036.32
2022-10-01T16:43:33.423Z,99028.36
2022-10-01T16:46:06.265Z,99025.44
2022-10-01T16:48:38.849Z,99023.50
2022-10-01T16:51:12.451Z,99013.44
2022-10-01T16:53:45.756Z,99008.98
2022-10-01T16:56:21.451Z,99007.28
2022-10-01T16:58:54.568Z,99003.55
2022-10-01T17:01:27.456Z,98997.11
2022-10-01T17:04:00.272Z,98999.62
2022-10-01T17:06:32.631Z,98993.20
2022-10-01T17:09:05.472Z,98986.91
2022-10-01T17:11:39.644Z,98987.31
2022-10-01T17:14:19.716Z,98979.35
2022-10-01T17:16:54.088Z,98967.34
2022-10-01T17:19:27.140Z,98971.79
2022-10-01T17:22:01.682Z,98958.39
2022-10-01T17:24:36.213Z,98956.02
2022-10-01T17:27:08.578Z,98957.28
2022-10-01T17:29:41.703Z,98949.77
2022-10-01T17:32:15.967Z,98948.38
2022-10-01T17:34:49.207Z,98939.17
2022-10-01T17:37:24.065Z,98943.94
2022-10-01T17:39:56.614Z,98932.75
2022-10-01T17:42:29.659Z,98924.25
2022-10-01T17:45:03.087Z,98916.30
2022-10-01T17:47:36.992Z,98911.98
2022-10-01T17:50:10.384Z,98908.34
2022-10-01T17:52:43.368Z,98906.54
2022-10-01T17:55:16.240Z,98895.93
2022-10-01T17:57:48.471Z,98895.63
2022-10-01T18:00:22.619Z,98885.86
2022-10-01T18:02:56.272Z,98879.16
2022-10-01T18:05:30.006Z,98870.20
2022-10-01T18:08:02.872Z,98863.77
2022-10-01T18:10:35.285Z,98873.82
2022-10-01T18:13:07.734Z,98865.55
2022-10-01T18:15:40.369Z,98854.66
2022-10-01T18:20:47.534Z,98843.77
2022-10-01T18:23:22.119Z,98838.73
2022-10-01T18:25:55.359Z,98827.98
2022-10-01T18:28:28.605Z,98826.33
2022-10-01T18:31:17.631Z,98825.48
2022-10-01T18:33:53.880Z,98814.72
2022-10-01T18:36:49.280Z,98804.95
2022-10-01T18:39:28.308Z,98807.44
2022-10-01T18:42:03.964Z,98801.17
2022-10-01T18:44:37.244Z,98801.98
2022-10-01T18:47:28.060Z,98804.21
2022-10-01T18:50:22.234Z,98806.16
2022-10-01T18:52:58.702Z,98803.36
2022-10-01T18:55:36.439Z,98803.97
2022-10-01T18:58:30.533Z,98802.73
2022-10-01T19:01:27.891Z,98836.12
2022-10-01T19:04:22.588Z,98835.33
2022-10-01T19:07:31.516Z,98835.64
2022-10-01T19:10:19.983Z,98838.48
2022-10-01T19:13:00.276Z,98837.64
2022-10-01T19:15:56.281Z,98806.84
2022-10-01T19:18:43.273Z,98811.03
2022-10-01T19:21:21.657Z,98809.20
2022-10-01T19:23:57.143Z,98806.28
2022-10-01T19:26:35.631Z,98793.45
2022-10-01T19:29:27.428Z,98795.15
2022-10-01T19:32:02.798Z,98779.92
2022-10-01T19:34:40.953Z,98782.98
2022-10-01T19:37:25.155Z,98774.22
2022-10-01T19:40:00.318Z,98775.48
2022-10-01T19:42:35.496Z,98761.83
2022-10-01T19:45:28.491Z,98762.38
2022-10-01T19:48:15.396Z,98754.88
2022-10-01T19:50:53.209Z,98756.95
2022-10-01T19:53:35.562Z,98745.81
2022-10-01T19:56:08.488Z,98742.63
2022-10-01T19:58:40.580Z,98736.76
2022-10-01T20:01:15.864Z,98730.08
2022-10-01T20:04:06.350Z,98718.66
2022-10-01T20:06:41.327Z,98721.59
2022-10-01T20:09:25.257Z,98718.36
2022-10-01T20:12:06.268Z,98709.61
2022-10-01T20:15:09.653Z,98695.80
2022-10-01T20:17:47.968Z,98692.34
2022-10-01T20:20:26.011Z,98690.81
2022-10-01T20:23:21.917Z,98685.66
2022-10-01T20:26:25.366Z,98681.34
2022-10-01T20:29:15.455Z,98679.51
2022-10-01T20:31:52.142Z,98677.17
2022-10-01T20:34:27.800Z,98674.66
2022-10-01T20:37:23.785Z,98664.34
2022-10-01T20:40:00.485Z,98671.30
2022-10-01T20:42:42.115Z,98677.72
2022-10-01T20:45:20.378Z,98676.87
2022-10-01T20:48:03.035Z,98669.77
2022-10-01T20:50:38.637Z,98672.97
2022-10-01T20:53:13.765Z,98670.45
2022-10-01T20:55:48.935Z,98667.66
2022-10-01T20:58:36.104Z,98670.88
2022-10-01T21:01:24.014Z,98668.23
2022-10-01T21:03:59.023Z,98662.36
2022-10-01T21:06:45.996Z,98655.12
2022-10-01T21:09:26.710Z,98659.30
2022-10-01T21:12:02.100Z,98663.06
2022-10-01T21:14:43.122Z,98669.31
2022-10-01T21:17:25.624Z,98663.34
2022-10-01T21:20:23.252Z,98669.45
2022-10-01T21:22:58.226Z,98663.88
2022-10-01T21:25:54.229Z,98654.55
2022-10-01T21:28:47.577Z,98653.03
2022-10-01T21:31:31.521Z,98655.81
2022-10-01T21:34:12.362Z,98654.69
2022-10-01T21:37:02.368Z,98649.83
2022-10-01T21:39:39.350Z,98649.66
2022-10-01T21:42:17.256Z,98654.26
2022-10-01T21:44:52.524Z,98650.63
2022-10-01T21:47:30.355Z,98652.01
2022-10-01T21:50:12.805Z,98657.02
2022-10-01T21:53:06.786Z,98656.72
2022-10-01T21:56:13.283Z,98665.37
2022-10-01T21:58:54.013Z,98659.23
2022-10-01T22:01:35.507Z,98652.80
2022-10-01T22:04:28.442Z,98657.81
2022-10-01T22:07:33.520Z,98656.02
2022-10-01T22:10:26.707Z,98657.53
2022-10-01T22:13:01.253Z,98656.69
2022-10-01T22:15:42.293Z,98655.56
2022-10-01T22:18:20.109Z,98659.20
2022-10-01T22:20:54.561Z,98653.23
2022-10-01T22:23:28.283Z,98666.47
2022-10-01T22:26:03.744Z,98657.67
2022-10-01T22:28:38.861Z,98666.75
2022-10-01T22:31:14.052Z,98667.73
2022-10-01T22:33:52.055Z,98667.03
2022-10-01T22:36:30.362Z,98667.31
2022-10-01T22:39:05.219Z,98671.79
2022-10-01T22:42:04.142Z,98674.58
2022-10-01T22:44:36.432Z,98674.16
2022-10-01T22:47:27.657Z,98679.28
2022-10-01T22:50:17.590Z,98672.05
2022-10-01T22:52:52.437Z,98671.79
2022-10-01T22:55:48.324Z,98681.81
2022-10-01T22:58:38.371Z,98680.16
2022-10-01T23:01:33.264Z,98671.41
2022-10-01T23:04:10.182Z,98667.79
2022-10-01T23:06:47.617Z,98680.73
2022-10-01T23:09:28.536Z,98678.83
2022-10-01T23:12:21.470Z,98671.03
2022-10-01T23:15:24.995Z,98675.91
2022-10-01T23:18:05.950Z,98667.97
2022-10-01T23:20:40.959Z,98664.34
2022-10-01T23:23:25.327Z,98672.53
2022-10-01T23:26:10.147Z,98671.83
2022-10-01T23:29:09.168Z,98674.05
2022-10-01T23:32:14.294Z,98675.44
2022-10-01T23:34:54.978Z,98677.38
2022-10-01T23:37:45.454Z,98678.23
2022-10-01T23:40:20.839Z,98672.65
2022-10-01T23:43:01.661Z,98674.02
2022-10-01T23:45:59.473Z,98675.66
2022-10-01T23:48:40.457Z,98682.45
2022-10-01T23:51:27.599Z,98682.45
2022-10-01T23:54:05.343Z,98694.77
2022-10-01T23:56:52.182Z,98694.77
2022-10-01T23:59:30.403Z,98694.03
